sensor_id;sensor_type;location;lat;lon;timestamp;temperature;humidity
10468;DHT22;5281;48.878;9.394;2022-12-16T00:00:28;2.00;99.90
10468;DHT22;5281;48.878;9.394;2022-12-16T00:02:58;2.00;99.90
10468;DHT22;5281;48.878;9.394;2022-12-16T00:05:25;2.00;99.90
10468;DHT22;5281;48.878;9.394;2022-12-16T00:07:52;1.80;99.90
10468;DHT22;5281;48.878;9.394;2022-12-16T00:10:19;1.70;99.90
10468;DHT22;5281;48.878;9.394;2022-12-16T00:12:46;1.70;99.90
10468;DHT22;5281;48.878;9.394;2022-12-16T00:15:13;1.50;99.90
10468;DHT22;5281;48.878;9.394;2022-12-16T00:17:40;1.60;99.90
10468;DHT22;5281;48.878;9.394;2022-12-16T00:20:09;1.70;99.90
10468;DHT22;5281;48.878;9.394;2022-12-16T00:22:36;1.70;99.90
10468;DHT22;5281;48.878;9.394;2022-12-16T00:25:03;1.70;99.90
10468;DHT22;5281;48.878;9.394;2022-12-16T00:27:30;1.60;99.90
10468;DHT22;5281;48.878;9.394;2022-12-16T00:29:56;1.50;99.90
10468;DHT22;5281;48.878;9.394;2022-12-16T00:32:24;1.40;99.90
10468;DHT22;5281;48.878;9.394;2022-12-16T00:34:51;1.50;99.90
10468;DHT22;5281;48.878;9.394;2022-12-16T00:37:19;1.60;99.90
10468;DHT22;5281;48.878;9.394;2022-12-16T00:39:45;1.70;99.90
10468;DHT22;5281;48.878;9.394;2022-12-16T00:42:12;1.80;99.90
10468;DHT22;5281;48.878;9.394;2022-12-16T00:44:39;1.80;99.90
10468;DHT22;5281;48.878;9.394;2022-12-16T00:47:06;1.90;99.90
10468;DHT22;5281;48.878;9.394;2022-12-16T00:49:33;2.00;99.90
10468;DHT22;5281;48.878;9.394;2022-12-16T00:51:59;1.90;99.90
10468;DHT22;5281;48.878;9.394;2022-12-16T00:54:27;1.90;99.90
10468;DHT22;5281;48.878;9.394;2022-12-16T00:56:54;1.80;99.90
10468;DHT22;5281;48.878;9.394;2022-12-16T00:59:21;1.70;99.90
10468;DHT22;5281;48.878;9.394;2022-12-16T01:01:47;1.70;99.90
10468;DHT22;5281;48.878;9.394;2022-12-16T01:04:14;1.60;99.90
10468;DHT22;5281;48.878;9.394;2022-12-16T01:06:41;1.60;99.90
10468;DHT22;5281;48.878;9.394;2022-12-16T01:09:07;1.50;99.90
10468;DHT22;5281;48.878;9.394;2022-12-16T01:11:36;1.60;99.90
10468;DHT22;5281;48.878;9.394;2022-12-16T01:14:02;1.60;99.90
10468;DHT22;5281;48.878;9.394;2022-12-16T01:16:29;1.50;99.90
10468;DHT22;5281;48.878;9.394;2022-12-16T01:18:56;1.50;99.90
10468;DHT22;5281;48.878;9.394;2022-12-16T01:21:22;1.50;99.90
10468;DHT22;5281;48.878;9.394;2022-12-16T01:23:49;1.40;99.90
10468;DHT22;5281;48.878;9.394;2022-12-16T01:26:17;1.30;99.90
10468;DHT22;5281;48.878;9.394;2022-12-16T01:28:46;1.20;99.90
10468;DHT22;5281;48.878;9.394;2022-12-16T01:31:15;1.10;99.90
10468;DHT22;5281;48.878;9.394;2022-12-16T01:33:42;1.10;99.90
10468;DHT22;5281;48.878;9.394;2022-12-16T01:36:09;1.10;99.90
10468;DHT22;5281;48.878;9.394;2022-12-16T01:38:36;1.20;99.90
10468;DHT22;5281;48.878;9.394;2022-12-16T01:41:04;1.30;99.90
10468;DHT22;5281;48.878;9.394;2022-12-16T01:43:33;1.30;99.90
10468;DHT22;5281;48.878;9.394;2022-12-16T01:46:05;1.20;99.90
10468;DHT22;5281;48.878;9.394;2022-12-16T01:48:45;1.20;99.90
10468;DHT22;5281;48.878;9.394;2022-12-16T01:51:19;1.30;99.90
10468;DHT22;5281;48.878;9.394;2022-12-16T01:53:48;1.40;99.90
10468;DHT22;5281;48.878;9.394;2022-12-16T01:56:17;1.60;99.90
10468;DHT22;5281;48.878;9.394;2022-12-16T01:58:45;1.70;99.90
10468;DHT22;5281;48.878;9.394;2022-12-16T02:01:15;1.70;99.90
10468;DHT22;5281;48.878;9.394;2022-12-16T02:03:42;1.80;99.90
10468;DHT22;5281;48.878;9.394;2022-12-16T02:06:09;1.80;99.90
10468;DHT22;5281;48.878;9.394;2022-12-16T02:08:36;1.80;99.90
10468;DHT22;5281;48.878;9.394;2022-12-16T02:11:27;1.70;99.90
10468;DHT22;5281;48.878;9.394;2022-12-16T02:14:15;1.70;99.90
10468;DHT22;5281;48.878;9.394;2022-12-16T02:16:52;1.80;99.90
10468;DHT22;5281;48.878;9.394;2022-12-16T02:19:46;1.80;99.90
10468;DHT22;5281;48.878;9.394;2022-12-16T02:22:26;1.80;99.90
10468;DHT22;5281;48.878;9.394;2022-12-16T02:25:27;1.80;99.90
10468;DHT22;5281;48.878;9.394;2022-12-16T02:28:04;1.70;99.90
10468;DHT22;5281;48.878;9.394;2022-12-16T02:30:52;1.80;99.90
10468;DHT22;5281;48.878;9.394;2022-12-16T02:33:39;1.80;99.90
10468;DHT22;5281;48.878;9.394;2022-12-16T02:36:14;1.70;99.90
10468;DHT22;5281;48.878;9.394;2022-12-16T02:38:50;1.60;99.90
10468;DHT22;5281;48.878;9.394;2022-12-16T02:41:26;1.30;99.90
10468;DHT22;5281;48.878;9.394;2022-12-16T02:43:58;1.30;99.90
10468;DHT22;5281;48.878;9.394;2022-12-16T02:46:30;1.10;99.90
10468;DHT22;5281;48.878;9.394;2022-12-16T02:49:04;1.10;99.90
10468;DHT22;5281;48.878;9.394;2022-12-16T02:51:32;1.10;99.90
10468;DHT22;5281;48.878;9.394;2022-12-16T02:54:00;1.10;99.90
10468;DHT22;5281;48.878;9.394;2022-12-16T02:56:41;0.90;99.90
10468;DHT22;5281;48.878;9.394;2022-12-16T02:59:17;0.90;99.90
10468;DHT22;5281;48.878;9.394;2022-12-16T03:01:53;0.90;99.90
10468;DHT22;5281;48.878;9.394;2022-12-16T03:04:27;0.90;99.90
10468;DHT22;5281;48.878;9.394;2022-12-16T03:06:55;1.10;99.90
10468;DHT22;5281;48.878;9.394;2022-12-16T03:09:25;1.30;99.90
10468;DHT22;5281;48.878;9.394;2022-12-16T03:11:54;1.40;99.90
10468;DHT22;5281;48.878;9.394;2022-12-16T03:14:24;1.50;99.90
10468;DHT22;5281;48.878;9.394;2022-12-16T03:16:54;1.70;99.90
10468;DHT22;5281;48.878;9.394;2022-12-16T03:19:22;1.80;99.90
10468;DHT22;5281;48.878;9.394;2022-12-16T03:21:55;2.00;99.90
10468;DHT22;5281;48.878;9.394;2022-12-16T03:24:24;2.10;99.90
10468;DHT22;5281;48.878;9.394;2022-12-16T03:26:57;2.30;99.90
10468;DHT22;5281;48.878;9.394;2022-12-16T03:29:35;2.40;99.90
10468;DHT22;5281;48.878;9.394;2022-12-16T03:32:09;2.40;99.90
10468;DHT22;5281;48.878;9.394;2022-12-16T03:34:41;2.50;99.90
10468;DHT22;5281;48.878;9.394;2022-12-16T03:37:11;2.40;99.90
10468;DHT22;5281;48.878;9.394;2022-12-16T03:39:41;2.40;99.90
10468;DHT22;5281;48.878;9.394;2022-12-16T03:42:09;2.40;99.90
10468;DHT22;5281;48.878;9.394;2022-12-16T03:44:37;2.20;99.90
10468;DHT22;5281;48.878;9.394;2022-12-16T03:47:06;2.20;99.90
10468;DHT22;5281;48.878;9.394;2022-12-16T03:49:32;2.20;99.90
10468;DHT22;5281;48.878;9.394;2022-12-16T03:51:59;2.20;99.90
10468;DHT22;5281;48.878;9.394;2022-12-16T03:54:26;2.00;99.90
10468;DHT22;5281;48.878;9.394;2022-12-16T03:56:53;2.00;99.90
10468;DHT22;5281;48.878;9.394;2022-12-16T03:59:20;2.00;99.90
10468;DHT22;5281;48.878;9.394;2022-12-16T04:01:47;2.00;99.90
10468;DHT22;5281;48.878;9.394;2022-12-16T04:04:16;2.10;99.90
10468;DHT22;5281;48.878;9.394;2022-12-16T04:06:43;1.90;99.90
10468;DHT22;5281;48.878;9.394;2022-12-16T04:09:10;1.70;99.90
10468;DHT22;5281;48.878;9.394;2022-12-16T04:11:37;1.40;99.90
10468;DHT22;5281;48.878;9.394;2022-12-16T04:14:21;1.20;99.90
10468;DHT22;5281;48.878;9.394;2022-12-16T04:17:11;0.90;99.90
10468;DHT22;5281;48.878;9.394;2022-12-16T04:19:57;0.70;99.90
10468;DHT22;5281;48.878;9.394;2022-12-16T04:22:42;0.60;99.90
10468;DHT22;5281;48.878;9.394;2022-12-16T04:25:29;0.60;99.90
10468;DHT22;5281;48.878;9.394;2022-12-16T04:27:57;0.80;99.90
10468;DHT22;5281;48.878;9.394;2022-12-16T04:30:25;0.90;99.90
10468;DHT22;5281;48.878;9.394;2022-12-16T04:32:55;0.80;99.90
10468;DHT22;5281;48.878;9.394;2022-12-16T04:35:41;0.90;99.90
10468;DHT22;5281;48.878;9.394;2022-12-16T04:38:26;0.90;99.90
10468;DHT22;5281;48.878;9.394;2022-12-16T04:41:10;0.90;99.90
10468;DHT22;5281;48.878;9.394;2022-12-16T04:43:55;0.80;99.90
10468;DHT22;5281;48.878;9.394;2022-12-16T04:46:39;1.00;99.90
10468;DHT22;5281;48.878;9.394;2022-12-16T04:49:23;1.20;99.90
10468;DHT22;5281;48.878;9.394;2022-12-16T04:52:09;1.10;99.90
10468;DHT22;5281;48.878;9.394;2022-12-16T04:54:53;1.20;99.90
10468;DHT22;5281;48.878;9.394;2022-12-16T04:57:38;1.30;99.90
10468;DHT22;5281;48.878;9.394;2022-12-16T05:00:23;1.50;99.90
10468;DHT22;5281;48.878;9.394;2022-12-16T05:03:08;1.60;99.90
10468;DHT22;5281;48.878;9.394;2022-12-16T05:05:52;1.60;99.90
10468;DHT22;5281;48.878;9.394;2022-12-16T05:08:38;1.60;99.90
10468;DHT22;5281;48.878;9.394;2022-12-16T05:11:23;1.60;99.90
10468;DHT22;5281;48.878;9.394;2022-12-16T05:14:07;1.70;99.90
10468;DHT22;5281;48.878;9.394;2022-12-16T05:16:51;1.80;99.90
10468;DHT22;5281;48.878;9.394;2022-12-16T05:19:35;1.90;99.90
10468;DHT22;5281;48.878;9.394;2022-12-16T05:22:19;2.00;99.90
10468;DHT22;5281;48.878;9.394;2022-12-16T05:25:07;2.20;99.90
10468;DHT22;5281;48.878;9.394;2022-12-16T05:27:52;2.40;99.90
10468;DHT22;5281;48.878;9.394;2022-12-16T05:30:36;2.50;99.90
10468;DHT22;5281;48.878;9.394;2022-12-16T05:33:21;2.50;99.90
10468;DHT22;5281;48.878;9.394;2022-12-16T05:36:06;2.50;99.90
10468;DHT22;5281;48.878;9.394;2022-12-16T05:38:51;2.50;99.90
10468;DHT22;5281;48.878;9.394;2022-12-16T05:41:38;2.60;99.90
10468;DHT22;5281;48.878;9.394;2022-12-16T05:44:22;2.60;99.90
10468;DHT22;5281;48.878;9.394;2022-12-16T05:47:07;2.60;99.90
10468;DHT22;5281;48.878;9.394;2022-12-16T05:49:52;2.60;99.90
10468;DHT22;5281;48.878;9.394;2022-12-16T05:52:37;2.60;99.90
10468;DHT22;5281;48.878;9.394;2022-12-16T05:55:21;2.40;99.90
10468;DHT22;5281;48.878;9.394;2022-12-16T05:58:07;2.00;99.90
10468;DHT22;5281;48.878;9.394;2022-12-16T06:00:51;1.70;99.90
10468;DHT22;5281;48.878;9.394;2022-12-16T06:03:35;1.40;99.90
10468;DHT22;5281;48.878;9.394;2022-12-16T06:06:20;1.30;99.90
10468;DHT22;5281;48.878;9.394;2022-12-16T06:09:05;1.20;99.90
10468;DHT22;5281;48.878;9.394;2022-12-16T06:11:49;0.90;99.90
10468;DHT22;5281;48.878;9.394;2022-12-16T06:14:35;0.70;99.90
10468;DHT22;5281;48.878;9.394;2022-12-16T06:17:20;0.60;99.90
10468;DHT22;5281;48.878;9.394;2022-12-16T06:20:06;0.40;99.90
10468;DHT22;5281;48.878;9.394;2022-12-16T06:22:50;0.30;99.90
10468;DHT22;5281;48.878;9.394;2022-12-16T06:25:35;0.10;99.90
10468;DHT22;5281;48.878;9.394;2022-12-16T06:28:19;0.10;99.90
10468;DHT22;5281;48.878;9.394;2022-12-16T06:31:04;0.20;99.90
10468;DHT22;5281;48.878;9.394;2022-12-16T06:33:49;0.20;99.90
10468;DHT22;5281;48.878;9.394;2022-12-16T06:36:33;0.20;99.90
10468;DHT22;5281;48.878;9.394;2022-12-16T06:39:17;0.10;99.90
10468;DHT22;5281;48.878;9.394;2022-12-16T06:42:01;0.20;99.90
10468;DHT22;5281;48.878;9.394;2022-12-16T06:44:45;0.30;99.90
10468;DHT22;5281;48.878;9.394;2022-12-16T06:47:30;0.30;99.90
10468;DHT22;5281;48.878;9.394;2022-12-16T06:50:15;0.30;99.90
10468;DHT22;5281;48.878;9.394;2022-12-16T06:52:59;0.30;99.90
10468;DHT22;5281;48.878;9.394;2022-12-16T06:55:43;0.40;99.90
10468;DHT22;5281;48.878;9.394;2022-12-16T06:58:27;0.80;99.90
10468;DHT22;5281;48.878;9.394;2022-12-16T07:01:11;1.10;99.90
10468;DHT22;5281;48.878;9.394;2022-12-16T07:03:57;1.40;99.90
10468;DHT22;5281;48.878;9.394;2022-12-16T07:06:56;1.50;99.90
10468;DHT22;5281;48.878;9.394;2022-12-16T07:09:40;1.70;99.90
10468;DHT22;5281;48.878;9.394;2022-12-16T07:12:25;1.90;99.90
10468;DHT22;5281;48.878;9.394;2022-12-16T07:15:07;1.90;99.90
10468;DHT22;5281;48.878;9.394;2022-12-16T07:17:51;2.00;99.90
10468;DHT22;5281;48.878;9.394;2022-12-16T07:20:36;2.10;99.90
10468;DHT22;5281;48.878;9.394;2022-12-16T07:23:21;2.20;99.90
10468;DHT22;5281;48.878;9.394;2022-12-16T07:26:05;2.20;99.90
10468;DHT22;5281;48.878;9.394;2022-12-16T07:28:50;2.30;99.90
10468;DHT22;5281;48.878;9.394;2022-12-16T07:31:30;2.30;99.90
10468;DHT22;5281;48.878;9.394;2022-12-16T07:34:15;2.30;99.90
10468;DHT22;5281;48.878;9.394;2022-12-16T07:37:00;2.40;99.90
10468;DHT22;5281;48.878;9.394;2022-12-16T07:39:45;2.40;99.90
10468;DHT22;5281;48.878;9.394;2022-12-16T07:42:29;2.60;99.90
10468;DHT22;5281;48.878;9.394;2022-12-16T07:45:13;2.60;99.90
10468;DHT22;5281;48.878;9.394;2022-12-16T07:47:58;2.70;99.90
10468;DHT22;5281;48.878;9.394;2022-12-16T07:50:42;2.80;99.90
10468;DHT22;5281;48.878;9.394;2022-12-16T07:53:27;2.80;99.90
10468;DHT22;5281;48.878;9.394;2022-12-16T07:56:12;2.90;99.90
10468;DHT22;5281;48.878;9.394;2022-12-16T07:58:56;3.00;99.90
10468;DHT22;5281;48.878;9.394;2022-12-16T08:01:40;3.00;99.90
10468;DHT22;5281;48.878;9.394;2022-12-16T08:04:24;3.10;99.90
10468;DHT22;5281;48.878;9.394;2022-12-16T08:07:08;3.20;99.90
10468;DHT22;5281;48.878;9.394;2022-12-16T08:09:54;3.20;99.90
10468;DHT22;5281;48.878;9.394;2022-12-16T08:12:38;3.30;99.90
10468;DHT22;5281;48.878;9.394;2022-12-16T08:15:22;3.30;99.90
10468;DHT22;5281;48.878;9.394;2022-12-16T08:18:07;3.40;99.90
10468;DHT22;5281;48.878;9.394;2022-12-16T08:20:51;3.60;99.90
10468;DHT22;5281;48.878;9.394;2022-12-16T08:23:35;3.60;99.90
10468;DHT22;5281;48.878;9.394;2022-12-16T08:26:21;3.70;99.90
10468;DHT22;5281;48.878;9.394;2022-12-16T08:29:05;3.70;99.90
10468;DHT22;5281;48.878;9.394;2022-12-16T08:31:49;3.60;99.90
10468;DHT22;5281;48.878;9.394;2022-12-16T08:34:33;3.50;99.90
10468;DHT22;5281;48.878;9.394;2022-12-16T08:37:18;3.50;99.90
10468;DHT22;5281;48.878;9.394;2022-12-16T08:40:03;3.30;99.90
10468;DHT22;5281;48.878;9.394;2022-12-16T08:42:48;3.00;99.90
10468;DHT22;5281;48.878;9.394;2022-12-16T08:45:32;2.90;99.90
10468;DHT22;5281;48.878;9.394;2022-12-16T08:48:17;3.10;99.90
10468;DHT22;5281;48.878;9.394;2022-12-16T08:51:01;3.30;99.90
10468;DHT22;5281;48.878;9.394;2022-12-16T08:53:46;3.30;99.90
10468;DHT22;5281;48.878;9.394;2022-12-16T08:56:30;3.30;99.90
10468;DHT22;5281;48.878;9.394;2022-12-16T08:59:16;3.20;99.90
10468;DHT22;5281;48.878;9.394;2022-12-16T09:02:00;3.10;99.90
10468;DHT22;5281;48.878;9.394;2022-12-16T09:04:44;3.00;99.90
10468;DHT22;5281;48.878;9.394;2022-12-16T09:07:28;3.10;99.90
10468;DHT22;5281;48.878;9.394;2022-12-16T09:10:12;3.20;99.90
10468;DHT22;5281;48.878;9.394;2022-12-16T09:13:05;3.30;99.90
10468;DHT22;5281;48.878;9.394;2022-12-16T09:15:50;3.20;99.90
10468;DHT22;5281;48.878;9.394;2022-12-16T09:18:35;3.10;99.90
10468;DHT22;5281;48.878;9.394;2022-12-16T09:21:19;3.10;99.90
10468;DHT22;5281;48.878;9.394;2022-12-16T09:24:03;3.00;99.90
10468;DHT22;5281;48.878;9.394;2022-12-16T09:26:47;3.20;99.90
10468;DHT22;5281;48.878;9.394;2022-12-16T09:29:32;3.50;99.90
10468;DHT22;5281;48.878;9.394;2022-12-16T09:32:17;3.60;99.90
10468;DHT22;5281;48.878;9.394;2022-12-16T09:35:01;3.80;99.90
10468;DHT22;5281;48.878;9.394;2022-12-16T09:37:46;4.10;99.90
10468;DHT22;5281;48.878;9.394;2022-12-16T09:40:30;4.20;99.90
10468;DHT22;5281;48.878;9.394;2022-12-16T09:43:41;4.20;99.90
10468;DHT22;5281;48.878;9.394;2022-12-16T09:46:36;4.00;99.90
10468;DHT22;5281;48.878;9.394;2022-12-16T09:49:32;4.30;99.90
10468;DHT22;5281;48.878;9.394;2022-12-16T09:52:21;4.60;99.90
10468;DHT22;5281;48.878;9.394;2022-12-16T09:55:19;4.90;99.90
10468;DHT22;5281;48.878;9.394;2022-12-16T09:58:06;4.60;99.90
10468;DHT22;5281;48.878;9.394;2022-12-16T10:00:52;4.10;99.90
10468;DHT22;5281;48.878;9.394;2022-12-16T10:03:38;4.20;99.90
10468;DHT22;5281;48.878;9.394;2022-12-16T10:06:31;4.40;99.90
10468;DHT22;5281;48.878;9.394;2022-12-16T10:09:23;4.60;99.90
10468;DHT22;5281;48.878;9.394;2022-12-16T10:12:16;4.70;99.90
10468;DHT22;5281;48.878;9.394;2022-12-16T10:15:15;4.60;99.90
10468;DHT22;5281;48.878;9.394;2022-12-16T10:18:09;4.50;99.90
10468;DHT22;5281;48.878;9.394;2022-12-16T10:20:54;4.60;99.90
10468;DHT22;5281;48.878;9.394;2022-12-16T10:23:42;4.70;99.90
10468;DHT22;5281;48.878;9.394;2022-12-16T10:26:35;4.70;99.90
10468;DHT22;5281;48.878;9.394;2022-12-16T10:29:26;4.60;99.90
10468;DHT22;5281;48.878;9.394;2022-12-16T10:32:14;4.40;99.90
10468;DHT22;5281;48.878;9.394;2022-12-16T10:35:00;4.60;99.90
10468;DHT22;5281;48.878;9.394;2022-12-16T10:37:45;4.60;99.90
10468;DHT22;5281;48.878;9.394;2022-12-16T10:40:33;4.70;99.90
10468;DHT22;5281;48.878;9.394;2022-12-16T10:43:21;4.90;99.90
10468;DHT22;5281;48.878;9.394;2022-12-16T10:46:14;5.20;99.90
10468;DHT22;5281;48.878;9.394;2022-12-16T10:49:01;5.10;99.90
10468;DHT22;5281;48.878;9.394;2022-12-16T10:51:45;4.90;99.90
10468;DHT22;5281;48.878;9.394;2022-12-16T10:54:34;4.60;99.90
10468;DHT22;5281;48.878;9.394;2022-12-16T10:57:30;4.60;99.90
10468;DHT22;5281;48.878;9.394;2022-12-16T11:00:19;4.90;99.90
10468;DHT22;5281;48.878;9.394;2022-12-16T11:03:17;5.00;99.90
10468;DHT22;5281;48.878;9.394;2022-12-16T11:06:02;5.20;99.90
10468;DHT22;5281;48.878;9.394;2022-12-16T11:08:47;5.20;99.90
10468;DHT22;5281;48.878;9.394;2022-12-16T11:11:33;5.10;99.90
10468;DHT22;5281;48.878;9.394;2022-12-16T11:14:22;5.20;99.90
10468;DHT22;5281;48.878;9.394;2022-12-16T11:17:18;5.20;99.90
10468;DHT22;5281;48.878;9.394;2022-12-16T11:20:11;5.30;99.90
10468;DHT22;5281;48.878;9.394;2022-12-16T11:23:18;5.50;99.90
10468;DHT22;5281;48.878;9.394;2022-12-16T11:26:07;5.70;99.90
10468;DHT22;5281;48.878;9.394;2022-12-16T11:29:09;5.70;99.90
10468;DHT22;5281;48.878;9.394;2022-12-16T11:32:00;5.70;99.90
10468;DHT22;5281;48.878;9.394;2022-12-16T11:34:49;5.80;99.90
10468;DHT22;5281;48.878;9.394;2022-12-16T11:37:50;5.80;99.90
10468;DHT22;5281;48.878;9.394;2022-12-16T11:40:36;6.00;99.90
10468;DHT22;5281;48.878;9.394;2022-12-16T11:43:21;6.10;99.90
10468;DHT22;5281;48.878;9.394;2022-12-16T11:46:09;6.30;99.90
10468;DHT22;5281;48.878;9.394;2022-12-16T11:48:58;6.40;99.90
10468;DHT22;5281;48.878;9.394;2022-12-16T11:51:50;6.50;99.90
10468;DHT22;5281;48.878;9.394;2022-12-16T11:54:41;6.00;99.90
10468;DHT22;5281;48.878;9.394;2022-12-16T11:57:37;5.80;99.90
10468;DHT22;5281;48.878;9.394;2022-12-16T12:00:22;5.70;99.90
10468;DHT22;5281;48.878;9.394;2022-12-16T12:03:10;5.80;99.90
10468;DHT22;5281;48.878;9.394;2022-12-16T12:06:01;5.80;99.90
10468;DHT22;5281;48.878;9.394;2022-12-16T12:08:55;5.60;99.90
10468;DHT22;5281;48.878;9.394;2022-12-16T12:11:44;5.50;99.90
10468;DHT22;5281;48.878;9.394;2022-12-16T12:14:35;5.60;99.90
10468;DHT22;5281;48.878;9.394;2022-12-16T12:17:35;5.70;99.90
10468;DHT22;5281;48.878;9.394;2022-12-16T12:20:38;5.40;99.90
10468;DHT22;5281;48.878;9.394;2022-12-16T12:23:46;4.80;99.90
10468;DHT22;5281;48.878;9.394;2022-12-16T12:26:47;4.90;99.90
10468;DHT22;5281;48.878;9.394;2022-12-16T12:29:48;4.90;99.90
10468;DHT22;5281;48.878;9.394;2022-12-16T12:32:41;4.80;99.90
10468;DHT22;5281;48.878;9.394;2022-12-16T12:35:46;4.60;99.90
10468;DHT22;5281;48.878;9.394;2022-12-16T12:38:41;4.80;99.90
10468;DHT22;5281;48.878;9.394;2022-12-16T12:41:32;5.00;99.90
10468;DHT22;5281;48.878;9.394;2022-12-16T12:44:39;5.10;99.90
10468;DHT22;5281;48.878;9.394;2022-12-16T12:47:29;5.10;99.90
10468;DHT22;5281;48.878;9.394;2022-12-16T12:50:20;5.20;99.90
10468;DHT22;5281;48.878;9.394;2022-12-16T12:53:17;5.20;99.90
10468;DHT22;5281;48.878;9.394;2022-12-16T12:56:14;5.20;99.90
10468;DHT22;5281;48.878;9.394;2022-12-16T12:59:07;5.20;99.90
10468;DHT22;5281;48.878;9.394;2022-12-16T13:01:54;5.30;99.90
10468;DHT22;5281;48.878;9.394;2022-12-16T13:04:54;5.50;99.90
10468;DHT22;5281;48.878;9.394;2022-12-16T13:07:38;5.40;99.90
10468;DHT22;5281;48.878;9.394;2022-12-16T13:10:34;5.20;99.90
10468;DHT22;5281;48.878;9.394;2022-12-16T13:13:33;5.10;99.90
10468;DHT22;5281;48.878;9.394;2022-12-16T13:19:56;5.40;99.90
10468;DHT22;5281;48.878;9.394;2022-12-16T13:22:42;5.50;99.90
10468;DHT22;5281;48.878;9.394;2022-12-16T13:25:50;5.40;99.90
10468;DHT22;5281;48.878;9.394;2022-12-16T13:28:37;5.40;99.90
10468;DHT22;5281;48.878;9.394;2022-12-16T13:31:23;5.40;99.90
10468;DHT22;5281;48.878;9.394;2022-12-16T13:34:21;5.30;99.90
10468;DHT22;5281;48.878;9.394;2022-12-16T13:37:19;5.30;99.90
10468;DHT22;5281;48.878;9.394;2022-12-16T13:40:13;5.40;99.90
10468;DHT22;5281;48.878;9.394;2022-12-16T13:43:00;5.30;99.90
10468;DHT22;5281;48.878;9.394;2022-12-16T13:46:14;5.20;99.90
10468;DHT22;5281;48.878;9.394;2022-12-16T13:52:21;5.00;99.90
10468;DHT22;5281;48.878;9.394;2022-12-16T13:55:14;4.80;99.90
10468;DHT22;5281;48.878;9.394;2022-12-16T13:58:10;4.50;99.90
10468;DHT22;5281;48.878;9.394;2022-12-16T14:01:03;4.40;99.90
10468;DHT22;5281;48.878;9.394;2022-12-16T14:03:50;4.40;99.90
10468;DHT22;5281;48.878;9.394;2022-12-16T14:06:37;4.30;99.90
10468;DHT22;5281;48.878;9.394;2022-12-16T14:09:33;4.10;99.90
10468;DHT22;5281;48.878;9.394;2022-12-16T14:15:53;4.20;99.90
10468;DHT22;5281;48.878;9.394;2022-12-16T14:18:44;4.00;99.90
10468;DHT22;5281;48.878;9.394;2022-12-16T14:21:36;3.80;99.90
10468;DHT22;5281;48.878;9.394;2022-12-16T14:24:23;3.90;99.90
10468;DHT22;5281;48.878;9.394;2022-12-16T14:27:13;3.90;99.90
10468;DHT22;5281;48.878;9.394;2022-12-16T14:30:00;4.00;99.90
10468;DHT22;5281;48.878;9.394;2022-12-16T14:32:46;4.10;99.90
10468;DHT22;5281;48.878;9.394;2022-12-16T14:35:31;4.10;99.90
10468;DHT22;5281;48.878;9.394;2022-12-16T14:38:21;4.10;99.90
10468;DHT22;5281;48.878;9.394;2022-12-16T14:41:10;4.00;99.90
10468;DHT22;5281;48.878;9.394;2022-12-16T14:43:54;4.00;99.90
10468;DHT22;5281;48.878;9.394;2022-12-16T14:46:39;4.00;99.90
10468;DHT22;5281;48.878;9.394;2022-12-16T14:49:26;4.00;99.90
10468;DHT22;5281;48.878;9.394;2022-12-16T14:52:23;4.00;99.90
10468;DHT22;5281;48.878;9.394;2022-12-16T14:55:14;4.10;99.90
10468;DHT22;5281;48.878;9.394;2022-12-16T14:58:04;4.10;99.90
10468;DHT22;5281;48.878;9.394;2022-12-16T15:00:49;4.10;99.90
10468;DHT22;5281;48.878;9.394;2022-12-16T15:03:37;4.20;99.90
10468;DHT22;5281;48.878;9.394;2022-12-16T15:06:25;4.10;99.90
10468;DHT22;5281;48.878;9.394;2022-12-16T15:09:19;4.00;99.90
10468;DHT22;5281;48.878;9.394;2022-12-16T15:12:06;3.90;99.90
10468;DHT22;5281;48.878;9.394;2022-12-16T15:14:53;3.60;99.90
10468;DHT22;5281;48.878;9.394;2022-12-16T15:17:44;3.50;99.90
10468;DHT22;5281;48.878;9.394;2022-12-16T15:20:32;3.40;99.90
10468;DHT22;5281;48.878;9.394;2022-12-16T15:23:22;3.30;99.90
10468;DHT22;5281;48.878;9.394;2022-12-16T15:26:08;3.30;99.90
10468;DHT22;5281;48.878;9.394;2022-12-16T15:28:52;3.50;99.90
10468;DHT22;5281;48.878;9.394;2022-12-16T15:31:38;3.50;99.90
10468;DHT22;5281;48.878;9.394;2022-12-16T15:34:28;3.50;99.90
10468;DHT22;5281;48.878;9.394;2022-12-16T15:37:19;3.40;99.90
10468;DHT22;5281;48.878;9.394;2022-12-16T15:40:18;3.40;99.90
10468;DHT22;5281;48.878;9.394;2022-12-16T15:43:03;3.30;99.90
10468;DHT22;5281;48.878;9.394;2022-12-16T15:45:48;3.30;99.90
10468;DHT22;5281;48.878;9.394;2022-12-16T15:48:34;3.30;99.90
10468;DHT22;5281;48.878;9.394;2022-12-16T15:51:22;3.20;99.90
10468;DHT22;5281;48.878;9.394;2022-12-16T15:54:14;3.20;99.90
10468;DHT22;5281;48.878;9.394;2022-12-16T15:57:00;3.20;99.90
10468;DHT22;5281;48.878;9.394;2022-12-16T15:59:59;3.30;99.90
10468;DHT22;5281;48.878;9.394;2022-12-16T16:02:47;3.30;99.90
10468;DHT22;5281;48.878;9.394;2022-12-16T16:05:30;3.30;99.90
10468;DHT22;5281;48.878;9.394;2022-12-16T16:08:14;3.20;99.90
10468;DHT22;5281;48.878;9.394;2022-12-16T16:10:58;3.10;99.90
10468;DHT22;5281;48.878;9.394;2022-12-16T16:13:43;3.10;99.90
10468;DHT22;5281;48.878;9.394;2022-12-16T16:16:28;3.20;99.90
10468;DHT22;5281;48.878;9.394;2022-12-16T16:19:17;3.20;99.90
10468;DHT22;5281;48.878;9.394;2022-12-16T16:22:07;3.20;99.90
10468;DHT22;5281;48.878;9.394;2022-12-16T16:24:52;3.10;99.90
10468;DHT22;5281;48.878;9.394;2022-12-16T16:27:36;3.00;99.90
10468;DHT22;5281;48.878;9.394;2022-12-16T16:30:22;3.00;99.90
10468;DHT22;5281;48.878;9.394;2022-12-16T16:33:06;3.10;99.90
10468;DHT22;5281;48.878;9.394;2022-12-16T16:35:50;2.90;99.90
10468;DHT22;5281;48.878;9.394;2022-12-16T16:38:34;2.80;99.90
10468;DHT22;5281;48.878;9.394;2022-12-16T16:41:18;2.70;99.90
10468;DHT22;5281;48.878;9.394;2022-12-16T16:44:02;2.80;99.90
10468;DHT22;5281;48.878;9.394;2022-12-16T16:46:48;2.80;99.90
10468;DHT22;5281;48.878;9.394;2022-12-16T16:49:34;2.80;99.90
10468;DHT22;5281;48.878;9.394;2022-12-16T16:52:21;2.80;99.90
10468;DHT22;5281;48.878;9.394;2022-12-16T16:55:07;2.80;99.90
10468;DHT22;5281;48.878;9.394;2022-12-16T16:57:56;2.90;99.90
10468;DHT22;5281;48.878;9.394;2022-12-16T17:00:40;2.90;99.90
10468;DHT22;5281;48.878;9.394;2022-12-16T17:03:26;3.00;99.90
10468;DHT22;5281;48.878;9.394;2022-12-16T17:06:22;3.00;99.90
10468;DHT22;5281;48.878;9.394;2022-12-16T17:09:06;2.90;99.90
10468;DHT22;5281;48.878;9.394;2022-12-16T17:11:50;2.70;99.90
10468;DHT22;5281;48.878;9.394;2022-12-16T17:14:34;2.70;99.90
10468;DHT22;5281;48.878;9.394;2022-12-16T17:17:18;2.60;99.90
10468;DHT22;5281;48.878;9.394;2022-12-16T17:20:05;2.50;99.90
10468;DHT22;5281;48.878;9.394;2022-12-16T17:22:49;2.60;99.90
10468;DHT22;5281;48.878;9.394;2022-12-16T17:25:33;2.60;99.90
10468;DHT22;5281;48.878;9.394;2022-12-16T17:28:18;2.50;99.90
10468;DHT22;5281;48.878;9.394;2022-12-16T17:31:03;2.60;99.90
10468;DHT22;5281;48.878;9.394;2022-12-16T17:33:47;2.70;99.90
10468;DHT22;5281;48.878;9.394;2022-12-16T17:36:33;2.70;99.90
10468;DHT22;5281;48.878;9.394;2022-12-16T17:39:17;2.80;99.90
10468;DHT22;5281;48.878;9.394;2022-12-16T17:42:01;2.80;99.90
10468;DHT22;5281;48.878;9.394;2022-12-16T17:44:46;2.70;99.90
10468;DHT22;5281;48.878;9.394;2022-12-16T17:47:31;2.80;99.90
10468;DHT22;5281;48.878;9.394;2022-12-16T17:50:15;2.80;99.90
10468;DHT22;5281;48.878;9.394;2022-12-16T17:53:01;2.80;99.90
10468;DHT22;5281;48.878;9.394;2022-12-16T17:55:45;2.60;99.90